sensor_id;sensor_type;location;lat;lon;timestamp;P1;durP1;ratioP1;P2;durP2;ratioP2
50012;SDS011;35901;48.694;9.476;2022-07-29T00:00:49;14.70;;;13.50;;
50012;SDS011;35901;48.694;9.476;2022-07-29T00:03:14;16.70;;;15.20;;
50012;SDS011;35901;48.694;9.476;2022-07-29T00:05:40;14.93;;;13.63;;
50012;SDS011;35901;48.694;9.476;2022-07-29T00:08:07;16.90;;;15.30;;
50012;SDS011;35901;48.694;9.476;2022-07-29T00:10:33;14.77;;;13.47;;
50012;SDS011;35901;48.694;9.476;2022-07-29T00:13:02;16.50;;;15.07;;
50012;SDS011;35901;48.694;9.476;2022-07-29T00:15:29;16.07;;;13.97;;
50012;SDS011;35901;48.694;9.476;2022-07-29T00:17:55;15.10;;;13.70;;
50012;SDS011;35901;48.694;9.476;2022-07-29T00:20:20;15.90;;;14.60;;
50012;SDS011;35901;48.694;9.476;2022-07-29T00:22:46;17.07;;;15.67;;
50012;SDS011;35901;48.694;9.476;2022-07-29T00:25:12;14.83;;;13.63;;
50012;SDS011;35901;48.694;9.476;2022-07-29T00:27:38;13.73;;;12.63;;
50012;SDS011;35901;48.694;9.476;2022-07-29T00:30:04;13.60;;;12.40;;
50012;SDS011;35901;48.694;9.476;2022-07-29T00:32:31;17.57;;;15.83;;
50012;SDS011;35901;48.694;9.476;2022-07-29T00:34:56;16.70;;;15.03;;
50012;SDS011;35901;48.694;9.476;2022-07-29T00:37:41;18.37;;;16.57;;
50012;SDS011;35901;48.694;9.476;2022-07-29T00:40:06;18.43;;;16.63;;
50012;SDS011;35901;48.694;9.476;2022-07-29T00:42:43;21.90;;;19.97;;
50012;SDS011;35901;48.694;9.476;2022-07-29T00:45:11;19.93;;;18.07;;
50012;SDS011;35901;48.694;9.476;2022-07-29T00:47:37;20.37;;;18.57;;
50012;SDS011;35901;48.694;9.476;2022-07-29T00:50:04;19.73;;;17.93;;
50012;SDS011;35901;48.694;9.476;2022-07-29T00:52:31;20.13;;;18.27;;
50012;SDS011;35901;48.694;9.476;2022-07-29T00:54:58;19.50;;;17.80;;
50012;SDS011;35901;48.694;9.476;2022-07-29T00:57:23;18.77;;;17.23;;
50012;SDS011;35901;48.694;9.476;2022-07-29T00:59:49;20.97;;;19.03;;
50012;SDS011;35901;48.694;9.476;2022-07-29T01:02:16;18.90;;;17.20;;
50012;SDS011;35901;48.694;9.476;2022-07-29T01:04:41;18.37;;;16.80;;
50012;SDS011;35901;48.694;9.476;2022-07-29T01:07:07;19.37;;;17.67;;
50012;SDS011;35901;48.694;9.476;2022-07-29T01:09:33;17.47;;;15.97;;
50012;SDS011;35901;48.694;9.476;2022-07-29T01:12:01;17.33;;;15.80;;
50012;SDS011;35901;48.694;9.476;2022-07-29T01:14:27;21.97;;;19.87;;
50012;SDS011;35901;48.694;9.476;2022-07-29T01:17:05;20.30;;;18.53;;
50012;SDS011;35901;48.694;9.476;2022-07-29T01:30:29;21.20;;;19.00;;
50012;SDS011;35901;48.694;9.476;2022-07-29T01:32:59;20.13;;;18.43;;
50012;SDS011;35901;48.694;9.476;2022-07-29T01:35:29;18.87;;;17.27;;
50012;SDS011;35901;48.694;9.476;2022-07-29T01:38:01;21.17;;;19.27;;
50012;SDS011;35901;48.694;9.476;2022-07-29T01:40:52;19.83;;;18.00;;
50012;SDS011;35901;48.694;9.476;2022-07-29T01:43:27;18.83;;;17.03;;
50012;SDS011;35901;48.694;9.476;2022-07-29T01:45:59;20.67;;;18.60;;
50012;SDS011;35901;48.694;9.476;2022-07-29T01:51:14;22.13;;;20.00;;
50012;SDS011;35901;48.694;9.476;2022-07-29T01:56:20;18.87;;;17.17;;
50012;SDS011;35901;48.694;9.476;2022-07-29T01:58:49;18.10;;;16.60;;
50012;SDS011;35901;48.694;9.476;2022-07-29T02:01:17;20.90;;;19.00;;
50012;SDS011;35901;48.694;9.476;2022-07-29T02:03:44;24.07;;;21.77;;
50012;SDS011;35901;48.694;9.476;2022-07-29T02:06:11;22.83;;;20.53;;
50012;SDS011;35901;48.694;9.476;2022-07-29T02:08:40;22.40;;;20.23;;
50012;SDS011;35901;48.694;9.476;2022-07-29T02:11:06;23.33;;;21.33;;
50012;SDS011;35901;48.694;9.476;2022-07-29T02:13:34;22.50;;;20.37;;
50012;SDS011;35901;48.694;9.476;2022-07-29T02:16:02;23.80;;;21.63;;
50012;SDS011;35901;48.694;9.476;2022-07-29T02:18:30;23.13;;;21.03;;
50012;SDS011;35901;48.694;9.476;2022-07-29T02:20:58;24.57;;;21.97;;
50012;SDS011;35901;48.694;9.476;2022-07-29T02:23:25;18.30;;;16.80;;
50012;SDS011;35901;48.694;9.476;2022-07-29T02:25:52;22.43;;;20.33;;
50012;SDS011;35901;48.694;9.476;2022-07-29T02:28:21;23.70;;;21.50;;
50012;SDS011;35901;48.694;9.476;2022-07-29T02:30:49;19.70;;;18.00;;
50012;SDS011;35901;48.694;9.476;2022-07-29T02:33:17;25.10;;;22.70;;
50012;SDS011;35901;48.694;9.476;2022-07-29T02:35:45;24.03;;;21.67;;
50012;SDS011;35901;48.694;9.476;2022-07-29T02:38:13;24.90;;;22.60;;
50012;SDS011;35901;48.694;9.476;2022-07-29T02:41:03;21.60;;;19.70;;
50012;SDS011;35901;48.694;9.476;2022-07-29T02:43:33;18.63;;;17.03;;
50012;SDS011;35901;48.694;9.476;2022-07-29T02:46:02;19.53;;;17.63;;
50012;SDS011;35901;48.694;9.476;2022-07-29T02:48:34;23.00;;;20.73;;
50012;SDS011;35901;48.694;9.476;2022-07-29T02:51:19;26.23;;;23.40;;
50012;SDS011;35901;48.694;9.476;2022-07-29T02:53:53;24.13;;;21.93;;
50012;SDS011;35901;48.694;9.476;2022-07-29T02:56:23;24.40;;;21.70;;
50012;SDS011;35901;48.694;9.476;2022-07-29T02:58:57;24.77;;;22.10;;
50012;SDS011;35901;48.694;9.476;2022-07-29T03:01:25;24.83;;;22.30;;
50012;SDS011;35901;48.694;9.476;2022-07-29T03:03:55;21.30;;;19.10;;
50012;SDS011;35901;48.694;9.476;2022-07-29T03:06:22;17.57;;;16.07;;
50012;SDS011;35901;48.694;9.476;2022-07-29T03:08:50;24.83;;;21.73;;
50012;SDS011;35901;48.694;9.476;2022-07-29T03:11:17;26.20;;;23.60;;
50012;SDS011;35901;48.694;9.476;2022-07-29T03:13:43;25.90;;;23.43;;
50012;SDS011;35901;48.694;9.476;2022-07-29T03:16:09;26.20;;;23.40;;
50012;SDS011;35901;48.694;9.476;2022-07-29T03:18:36;24.23;;;21.87;;
50012;SDS011;35901;48.694;9.476;2022-07-29T03:21:03;31.47;;;23.87;;
50012;SDS011;35901;48.694;9.476;2022-07-29T03:23:29;24.00;;;20.00;;
50012;SDS011;35901;48.694;9.476;2022-07-29T03:25:55;34.77;;;21.97;;
50012;SDS011;35901;48.694;9.476;2022-07-29T03:28:21;33.70;;;22.57;;
50012;SDS011;35901;48.694;9.476;2022-07-29T03:30:48;38.00;;;24.87;;
50012;SDS011;35901;48.694;9.476;2022-07-29T03:33:14;28.47;;;25.57;;
50012;SDS011;35901;48.694;9.476;2022-07-29T03:35:40;44.20;;;24.40;;
50012;SDS011;35901;48.694;9.476;2022-07-29T03:38:07;26.07;;;23.67;;
50012;SDS011;35901;48.694;9.476;2022-07-29T03:43:19;25.03;;;22.73;;
50012;SDS011;35901;48.694;9.476;2022-07-29T03:45:47;80.37;;;22.90;;
50012;SDS011;35901;48.694;9.476;2022-07-29T03:48:17;38.80;;;19.43;;
50012;SDS011;35901;48.694;9.476;2022-07-29T03:50:47;67.90;;;22.60;;
50012;SDS011;35901;48.694;9.476;2022-07-29T03:53:13;32.10;;;17.33;;
50012;SDS011;35901;48.694;9.476;2022-07-29T03:55:46;118.10;;;25.77;;
50012;SDS011;35901;48.694;9.476;2022-07-29T03:58:15;26.43;;;20.63;;
50012;SDS011;35901;48.694;9.476;2022-07-29T04:00:42;95.03;;;21.80;;
50012;SDS011;35901;48.694;9.476;2022-07-29T04:03:09;113.97;;;25.37;;
50012;SDS011;35901;48.694;9.476;2022-07-29T04:05:35;248.70;;;30.50;;
50012;SDS011;35901;48.694;9.476;2022-07-29T04:08:01;47.93;;;19.17;;
50012;SDS011;35901;48.694;9.476;2022-07-29T04:10:26;82.90;;;22.40;;
50012;SDS011;35901;48.694;9.476;2022-07-29T04:12:52;136.57;;;27.00;;
50012;SDS011;35901;48.694;9.476;2022-07-29T04:15:18;125.73;;;27.63;;
50012;SDS011;35901;48.694;9.476;2022-07-29T04:17:44;108.00;;;27.80;;
50012;SDS011;35901;48.694;9.476;2022-07-29T04:20:10;137.50;;;29.63;;
50012;SDS011;35901;48.694;9.476;2022-07-29T04:22:38;53.23;;;20.83;;
50012;SDS011;35901;48.694;9.476;2022-07-29T04:25:07;78.80;;;25.50;;
50012;SDS011;35901;48.694;9.476;2022-07-29T04:27:33;65.37;;;25.17;;
50012;SDS011;35901;48.694;9.476;2022-07-29T04:29:59;60.97;;;24.23;;
50012;SDS011;35901;48.694;9.476;2022-07-29T04:32:25;80.80;;;26.33;;
50012;SDS011;35901;48.694;9.476;2022-07-29T04:34:51;108.73;;;25.40;;
50012;SDS011;35901;48.694;9.476;2022-07-29T04:37:17;81.33;;;25.20;;
50012;SDS011;35901;48.694;9.476;2022-07-29T04:39:43;94.73;;;25.87;;
50012;SDS011;35901;48.694;9.476;2022-07-29T04:42:09;21.77;;;17.53;;
50012;SDS011;35901;48.694;9.476;2022-07-29T04:44:35;31.60;;;21.63;;
50012;SDS011;35901;48.694;9.476;2022-07-29T04:47:00;30.20;;;20.77;;
50012;SDS011;35901;48.694;9.476;2022-07-29T04:49:26;30.33;;;19.80;;
50012;SDS011;35901;48.694;9.476;2022-07-29T04:51:52;28.67;;;19.90;;
50012;SDS011;35901;48.694;9.476;2022-07-29T04:54:18;24.50;;;20.27;;
50012;SDS011;35901;48.694;9.476;2022-07-29T04:56:44;23.13;;;20.50;;
50012;SDS011;35901;48.694;9.476;2022-07-29T04:59:11;24.53;;;21.73;;
50012;SDS011;35901;48.694;9.476;2022-07-29T05:01:37;27.43;;;23.93;;
50012;SDS011;35901;48.694;9.476;2022-07-29T05:04:02;24.93;;;21.57;;
50012;SDS011;35901;48.694;9.476;2022-07-29T05:06:28;24.83;;;22.43;;
50012;SDS011;35901;48.694;9.476;2022-07-29T05:08:54;24.50;;;22.30;;
50012;SDS011;35901;48.694;9.476;2022-07-29T05:11:19;26.23;;;24.03;;
50012;SDS011;35901;48.694;9.476;2022-07-29T05:13:45;19.47;;;17.87;;
50012;SDS011;35901;48.694;9.476;2022-07-29T05:16:11;20.03;;;18.27;;
50012;SDS011;35901;48.694;9.476;2022-07-29T05:18:37;18.00;;;16.60;;
50012;SDS011;35901;48.694;9.476;2022-07-29T05:21:02;13.87;;;12.77;;
50012;SDS011;35901;48.694;9.476;2022-07-29T05:23:28;17.80;;;16.30;;
50012;SDS011;35901;48.694;9.476;2022-07-29T05:25:54;16.80;;;15.40;;
50012;SDS011;35901;48.694;9.476;2022-07-29T05:28:22;17.43;;;15.93;;
50012;SDS011;35901;48.694;9.476;2022-07-29T05:30:48;13.43;;;12.43;;
50012;SDS011;35901;48.694;9.476;2022-07-29T05:33:14;11.60;;;10.70;;
50012;SDS011;35901;48.694;9.476;2022-07-29T05:35:40;10.77;;;9.77;;
50012;SDS011;35901;48.694;9.476;2022-07-29T05:38:06;10.30;;;9.50;;
50012;SDS011;35901;48.694;9.476;2022-07-29T05:40:32;9.67;;;8.97;;
50012;SDS011;35901;48.694;9.476;2022-07-29T05:42:59;7.67;;;7.13;;
50012;SDS011;35901;48.694;9.476;2022-07-29T05:45:25;8.57;;;7.80;;
50012;SDS011;35901;48.694;9.476;2022-07-29T05:47:50;7.87;;;7.27;;
50012;SDS011;35901;48.694;9.476;2022-07-29T05:50:16;8.33;;;7.43;;
50012;SDS011;35901;48.694;9.476;2022-07-29T05:52:42;7.60;;;6.90;;
50012;SDS011;35901;48.694;9.476;2022-07-29T05:55:08;8.10;;;6.87;;
50012;SDS011;35901;48.694;9.476;2022-07-29T05:57:34;7.97;;;7.37;;
50012;SDS011;35901;48.694;9.476;2022-07-29T05:59:59;6.90;;;6.40;;
50012;SDS011;35901;48.694;9.476;2022-07-29T06:02:25;7.00;;;6.37;;
50012;SDS011;35901;48.694;9.476;2022-07-29T06:04:51;6.27;;;5.77;;
50012;SDS011;35901;48.694;9.476;2022-07-29T06:07:17;6.30;;;5.70;;
50012;SDS011;35901;48.694;9.476;2022-07-29T06:09:43;5.30;;;4.90;;
50012;SDS011;35901;48.694;9.476;2022-07-29T06:12:10;4.73;;;4.33;;
50012;SDS011;35901;48.694;9.476;2022-07-29T06:14:36;5.77;;;5.27;;
50012;SDS011;35901;48.694;9.476;2022-07-29T06:17:03;4.93;;;4.60;;
50012;SDS011;35901;48.694;9.476;2022-07-29T06:19:30;5.13;;;4.70;;
50012;SDS011;35901;48.694;9.476;2022-07-29T06:21:56;4.43;;;4.07;;
50012;SDS011;35901;48.694;9.476;2022-07-29T06:24:21;5.00;;;4.60;;
50012;SDS011;35901;48.694;9.476;2022-07-29T06:26:47;5.73;;;5.17;;
50012;SDS011;35901;48.694;9.476;2022-07-29T06:29:13;5.27;;;4.83;;
50012;SDS011;35901;48.694;9.476;2022-07-29T06:31:39;4.97;;;4.67;;
50012;SDS011;35901;48.694;9.476;2022-07-29T06:34:05;5.23;;;4.83;;
50012;SDS011;35901;48.694;9.476;2022-07-29T06:36:33;5.57;;;5.17;;
50012;SDS011;35901;48.694;9.476;2022-07-29T06:39:00;5.60;;;5.20;;
50012;SDS011;35901;48.694;9.476;2022-07-29T06:41:26;4.70;;;3.83;;
50012;SDS011;35901;48.694;9.476;2022-07-29T06:43:52;6.37;;;4.60;;
50012;SDS011;35901;48.694;9.476;2022-07-29T06:46:18;4.40;;;4.00;;
50012;SDS011;35901;48.694;9.476;2022-07-29T06:48:44;4.80;;;4.27;;
50012;SDS011;35901;48.694;9.476;2022-07-29T06:51:11;4.80;;;4.40;;
50012;SDS011;35901;48.694;9.476;2022-07-29T06:53:36;4.47;;;4.07;;
50012;SDS011;35901;48.694;9.476;2022-07-29T06:56:04;5.17;;;4.67;;
50012;SDS011;35901;48.694;9.476;2022-07-29T06:58:31;4.70;;;4.30;;
50012;SDS011;35901;48.694;9.476;2022-07-29T07:00:57;4.97;;;3.97;;
50012;SDS011;35901;48.694;9.476;2022-07-29T07:03:25;3.90;;;3.60;;
50012;SDS011;35901;48.694;9.476;2022-07-29T07:05:52;4.50;;;4.10;;
50012;SDS011;35901;48.694;9.476;2022-07-29T07:08:18;4.70;;;4.23;;
50012;SDS011;35901;48.694;9.476;2022-07-29T07:10:45;4.13;;;3.83;;
50012;SDS011;35901;48.694;9.476;2022-07-29T07:13:11;4.80;;;4.37;;
50012;SDS011;35901;48.694;9.476;2022-07-29T07:15:37;4.63;;;4.33;;
50012;SDS011;35901;48.694;9.476;2022-07-29T07:18:03;4.20;;;3.90;;
50012;SDS011;35901;48.694;9.476;2022-07-29T07:20:31;4.53;;;3.77;;
50012;SDS011;35901;48.694;9.476;2022-07-29T07:22:57;4.10;;;3.80;;
50012;SDS011;35901;48.694;9.476;2022-07-29T07:25:23;3.80;;;3.50;;
50012;SDS011;35901;48.694;9.476;2022-07-29T07:27:48;3.97;;;3.67;;
50012;SDS011;35901;48.694;9.476;2022-07-29T07:30:14;4.77;;;3.43;;
50012;SDS011;35901;48.694;9.476;2022-07-29T07:32:40;3.70;;;3.40;;
50012;SDS011;35901;48.694;9.476;2022-07-29T07:35:06;4.20;;;3.90;;
50012;SDS011;35901;48.694;9.476;2022-07-29T07:37:33;3.43;;;3.17;;
50012;SDS011;35901;48.694;9.476;2022-07-29T07:39:59;3.80;;;3.50;;
50012;SDS011;35901;48.694;9.476;2022-07-29T07:42:26;3.80;;;3.50;;
50012;SDS011;35901;48.694;9.476;2022-07-29T07:44:52;3.63;;;3.10;;
50012;SDS011;35901;48.694;9.476;2022-07-29T07:47:18;4.03;;;3.60;;
50012;SDS011;35901;48.694;9.476;2022-07-29T07:49:49;3.60;;;3.30;;
50012;SDS011;35901;48.694;9.476;2022-07-29T07:52:16;3.60;;;3.23;;
50012;SDS011;35901;48.694;9.476;2022-07-29T07:54:42;3.70;;;3.27;;
50012;SDS011;35901;48.694;9.476;2022-07-29T07:57:10;3.70;;;3.40;;
50012;SDS011;35901;48.694;9.476;2022-07-29T07:59:38;3.67;;;3.20;;
50012;SDS011;35901;48.694;9.476;2022-07-29T08:02:05;3.93;;;3.17;;
50012;SDS011;35901;48.694;9.476;2022-07-29T08:04:31;3.57;;;3.27;;
50012;SDS011;35901;48.694;9.476;2022-07-29T08:06:58;4.63;;;3.43;;
50012;SDS011;35901;48.694;9.476;2022-07-29T08:09:25;4.57;;;3.40;;
50012;SDS011;35901;48.694;9.476;2022-07-29T08:11:51;3.80;;;3.37;;
50012;SDS011;35901;48.694;9.476;2022-07-29T08:14:18;3.77;;;3.47;;
50012;SDS011;35901;48.694;9.476;2022-07-29T08:16:44;3.43;;;3.13;;
50012;SDS011;35901;48.694;9.476;2022-07-29T08:19:10;3.70;;;3.30;;
50012;SDS011;35901;48.694;9.476;2022-07-29T08:21:36;3.80;;;3.47;;
50012;SDS011;35901;48.694;9.476;2022-07-29T08:24:02;3.20;;;3.00;;
50012;SDS011;35901;48.694;9.476;2022-07-29T08:26:47;3.40;;;3.03;;
50012;SDS011;35901;48.694;9.476;2022-07-29T08:29:13;2.93;;;2.73;;
50012;SDS011;35901;48.694;9.476;2022-07-29T08:31:39;3.17;;;2.97;;
50012;SDS011;35901;48.694;9.476;2022-07-29T08:34:05;3.33;;;3.13;;
50012;SDS011;35901;48.694;9.476;2022-07-29T08:36:31;3.67;;;3.20;;
50012;SDS011;35901;48.694;9.476;2022-07-29T08:38:58;3.13;;;2.83;;
50012;SDS011;35901;48.694;9.476;2022-07-29T08:41:24;3.87;;;3.30;;
50012;SDS011;35901;48.694;9.476;2022-07-29T08:43:50;3.40;;;3.10;;
50012;SDS011;35901;48.694;9.476;2022-07-29T08:46:17;4.20;;;3.77;;
50012;SDS011;35901;48.694;9.476;2022-07-29T08:48:44;4.20;;;3.67;;
50012;SDS011;35901;48.694;9.476;2022-07-29T08:51:14;3.40;;;3.10;;
50012;SDS011;35901;48.694;9.476;2022-07-29T08:53:41;4.10;;;3.80;;
50012;SDS011;35901;48.694;9.476;2022-07-29T08:56:11;3.60;;;3.30;;
50012;SDS011;35901;48.694;9.476;2022-07-29T08:58:38;5.57;;;3.93;;
50012;SDS011;35901;48.694;9.476;2022-07-29T09:01:05;4.10;;;3.70;;
50012;SDS011;35901;48.694;9.476;2022-07-29T09:03:32;5.37;;;3.77;;
50012;SDS011;35901;48.694;9.476;2022-07-29T09:06:01;3.50;;;3.20;;
50012;SDS011;35901;48.694;9.476;2022-07-29T09:08:28;4.50;;;3.80;;
50012;SDS011;35901;48.694;9.476;2022-07-29T09:10:55;4.13;;;3.73;;
50012;SDS011;35901;48.694;9.476;2022-07-29T09:13:21;4.20;;;3.60;;
50012;SDS011;35901;48.694;9.476;2022-07-29T09:15:48;4.20;;;3.80;;
50012;SDS011;35901;48.694;9.476;2022-07-29T09:18:33;3.93;;;3.60;;
50012;SDS011;35901;48.694;9.476;2022-07-29T09:21:01;3.97;;;3.27;;
50012;SDS011;35901;48.694;9.476;2022-07-29T09:26:30;3.60;;;3.30;;
50012;SDS011;35901;48.694;9.476;2022-07-29T09:28:57;4.37;;;3.77;;
50012;SDS011;35901;48.694;9.476;2022-07-29T09:31:34;3.40;;;3.20;;
50012;SDS011;35901;48.694;9.476;2022-07-29T09:34:02;3.57;;;3.27;;
50012;SDS011;35901;48.694;9.476;2022-07-29T09:36:29;4.20;;;3.73;;
50012;SDS011;35901;48.694;9.476;2022-07-29T09:38:58;3.43;;;3.23;;
50012;SDS011;35901;48.694;9.476;2022-07-29T09:41:25;3.50;;;3.30;;
50012;SDS011;35901;48.694;9.476;2022-07-29T09:43:58;3.70;;;3.40;;
50012;SDS011;35901;48.694;9.476;2022-07-29T09:46:25;3.87;;;3.53;;
50012;SDS011;35901;48.694;9.476;2022-07-29T09:49:11;4.03;;;3.70;;
50012;SDS011;35901;48.694;9.476;2022-07-29T09:51:38;4.03;;;3.70;;
50012;SDS011;35901;48.694;9.476;2022-07-29T09:54:26;4.30;;;3.65;;
50012;SDS011;35901;48.694;9.476;2022-07-29T09:56:53;3.80;;;3.40;;
50012;SDS011;35901;48.694;9.476;2022-07-29T09:59:20;3.80;;;3.40;;
50012;SDS011;35901;48.694;9.476;2022-07-29T10:01:49;4.33;;;3.90;;
50012;SDS011;35901;48.694;9.476;2022-07-29T10:04:15;3.40;;;3.10;;
50012;SDS011;35901;48.694;9.476;2022-07-29T10:09:26;3.60;;;3.30;;
50012;SDS011;35901;48.694;9.476;2022-07-29T10:14:49;3.93;;;3.63;;
50012;SDS011;35901;48.694;9.476;2022-07-29T10:17:16;3.43;;;3.13;;
50012;SDS011;35901;48.694;9.476;2022-07-29T10:19:43;3.93;;;3.47;;
50012;SDS011;35901;48.694;9.476;2022-07-29T10:22:10;3.50;;;3.20;;
50012;SDS011;35901;48.694;9.476;2022-07-29T10:24:37;5.70;;;3.80;;
50012;SDS011;35901;48.694;9.476;2022-07-29T10:27:06;4.17;;;3.77;;
50012;SDS011;35901;48.694;9.476;2022-07-29T10:29:33;3.50;;;3.20;;
50012;SDS011;35901;48.694;9.476;2022-07-29T10:34:33;3.90;;;3.58;;
50012;SDS011;35901;48.694;9.476;2022-07-29T10:37:16;3.60;;;3.40;;
50012;SDS011;35901;48.694;9.476;2022-07-29T10:42:53;3.80;;;3.38;;
50012;SDS011;35901;48.694;9.476;2022-07-29T10:45:22;3.90;;;3.60;;
50012;SDS011;35901;48.694;9.476;2022-07-29T10:47:48;4.55;;;3.80;;
50012;SDS011;35901;48.694;9.476;2022-07-29T10:50:45;3.90;;;3.60;;
50012;SDS011;35901;48.694;9.476;2022-07-29T10:53:18;5.82;;;3.63;;
50012;SDS011;35901;48.694;9.476;2022-07-29T10:55:44;4.22;;;3.72;;
50012;SDS011;35901;48.694;9.476;2022-07-29T10:58:22;3.92;;;3.63;;
50012;SDS011;35901;48.694;9.476;2022-07-29T11:00:49;3.70;;;3.38;;
50012;SDS011;35901;48.694;9.476;2022-07-29T11:06:09;5.27;;;3.63;;
50012;SDS011;35901;48.694;9.476;2022-07-29T11:08:35;5.40;;;4.17;;
50012;SDS011;35901;48.694;9.476;2022-07-29T11:13:49;5.00;;;3.90;;
50012;SDS011;35901;48.694;9.476;2022-07-29T11:16:17;3.83;;;3.53;;
50012;SDS011;35901;48.694;9.476;2022-07-29T11:21:38;4.20;;;3.80;;
50012;SDS011;35901;48.694;9.476;2022-07-29T11:24:12;4.67;;;4.27;;
50012;SDS011;35901;48.694;9.476;2022-07-29T11:27:09;3.73;;;3.43;;
50012;SDS011;35901;48.694;9.476;2022-07-29T11:29:39;5.23;;;3.80;;
50012;SDS011;35901;48.694;9.476;2022-07-29T11:32:12;3.97;;;3.47;;
50012;SDS011;35901;48.694;9.476;2022-07-29T11:34:42;4.30;;;3.50;;
50012;SDS011;35901;48.694;9.476;2022-07-29T11:39:38;3.67;;;3.33;;
50012;SDS011;35901;48.694;9.476;2022-07-29T11:47:54;4.87;;;3.40;;
50012;SDS011;35901;48.694;9.476;2022-07-29T11:50:30;3.80;;;2.70;;
50012;SDS011;35901;48.694;9.476;2022-07-29T11:52:57;2.40;;;2.03;;
50012;SDS011;35901;48.694;9.476;2022-07-29T11:55:23;2.93;;;2.20;;
50012;SDS011;35901;48.694;9.476;2022-07-29T11:57:51;1.83;;;1.73;;
50012;SDS011;35901;48.694;9.476;2022-07-29T12:02:57;4.10;;;2.63;;
50012;SDS011;35901;48.694;9.476;2022-07-29T12:05:34;2.53;;;2.03;;
50012;SDS011;35901;48.694;9.476;2022-07-29T12:08:04;2.10;;;2.00;;
50012;SDS011;35901;48.694;9.476;2022-07-29T12:10:37;2.17;;;2.00;;
50012;SDS011;35901;48.694;9.476;2022-07-29T12:13:04;2.13;;;2.00;;
50012;SDS011;35901;48.694;9.476;2022-07-29T12:15:29;2.40;;;1.80;;
50012;SDS011;35901;48.694;9.476;2022-07-29T12:17:55;1.87;;;1.77;;
50012;SDS011;35901;48.694;9.476;2022-07-29T12:20:22;2.33;;;1.87;;
50012;SDS011;35901;48.694;9.476;2022-07-29T12:22:55;3.60;;;2.30;;
50012;SDS011;35901;48.694;9.476;2022-07-29T12:25:24;3.37;;;2.10;;
50012;SDS011;35901;48.694;9.476;2022-07-29T12:27:57;2.23;;;2.03;;
50012;SDS011;35901;48.694;9.476;2022-07-29T12:30:33;2.50;;;2.23;;
50012;SDS011;35901;48.694;9.476;2022-07-29T12:35:49;3.00;;;2.70;;
50012;SDS011;35901;48.694;9.476;2022-07-29T12:38:17;2.90;;;2.60;;
50012;SDS011;35901;48.694;9.476;2022-07-29T12:40:44;4.23;;;2.47;;
50012;SDS011;35901;48.694;9.476;2022-07-29T12:43:17;3.87;;;2.90;;
50012;SDS011;35901;48.694;9.476;2022-07-29T12:45:48;2.67;;;2.47;;
50012;SDS011;35901;48.694;9.476;2022-07-29T12:48:15;3.17;;;2.90;;
50012;SDS011;35901;48.694;9.476;2022-07-29T12:50:58;3.00;;;2.80;;
50012;SDS011;35901;48.694;9.476;2022-07-29T12:53:26;2.60;;;2.40;;
50012;SDS011;35901;48.694;9.476;2022-07-29T12:55:53;2.83;;;2.50;;
50012;SDS011;35901;48.694;9.476;2022-07-29T12:58:27;2.77;;;2.20;;
50012;SDS011;35901;48.694;9.476;2022-07-29T13:01:02;2.83;;;2.30;;
50012;SDS011;35901;48.694;9.476;2022-07-29T13:06:26;4.27;;;2.50;;
50012;SDS011;35901;48.694;9.476;2022-07-29T13:09:12;3.53;;;2.63;;
50012;SDS011;35901;48.694;9.476;2022-07-29T13:11:49;2.70;;;2.43;;
50012;SDS011;35901;48.694;9.476;2022-07-29T13:14:31;5.20;;;2.80;;
50012;SDS011;35901;48.694;9.476;2022-07-29T13:17:03;3.93;;;2.70;;
50012;SDS011;35901;48.694;9.476;2022-07-29T13:19:34;2.90;;;2.70;;
50012;SDS011;35901;48.694;9.476;2022-07-29T13:22:05;3.20;;;2.63;;
50012;SDS011;35901;48.694;9.476;2022-07-29T13:24:33;3.27;;;3.00;;
50012;SDS011;35901;48.694;9.476;2022-07-29T13:26:59;2.87;;;2.67;;
50012;SDS011;35901;48.694;9.476;2022-07-29T13:29:25;3.03;;;2.80;;
50012;SDS011;35901;48.694;9.476;2022-07-29T13:31:51;4.17;;;3.20;;
50012;SDS011;35901;48.694;9.476;2022-07-29T13:34:18;3.13;;;2.93;;
50012;SDS011;35901;48.694;9.476;2022-07-29T13:36:46;3.83;;;3.50;;
50012;SDS011;35901;48.694;9.476;2022-07-29T13:39:12;3.87;;;3.20;;
50012;SDS011;35901;48.694;9.476;2022-07-29T13:41:38;3.33;;;3.03;;
50012;SDS011;35901;48.694;9.476;2022-07-29T13:44:03;3.70;;;3.33;;
50012;SDS011;35901;48.694;9.476;2022-07-29T13:46:29;3.20;;;2.90;;
50012;SDS011;35901;48.694;9.476;2022-07-29T13:48:55;2.90;;;2.70;;
50012;SDS011;35901;48.694;9.476;2022-07-29T13:51:20;3.57;;;3.10;;
50012;SDS011;35901;48.694;9.476;2022-07-29T13:53:46;3.30;;;3.10;;
50012;SDS011;35901;48.694;9.476;2022-07-29T13:56:12;3.20;;;2.90;;
50012;SDS011;35901;48.694;9.476;2022-07-29T13:58:37;3.73;;;3.00;;
50012;SDS011;35901;48.694;9.476;2022-07-29T14:01:03;3.70;;;3.40;;
50012;SDS011;35901;48.694;9.476;2022-07-29T14:03:29;3.30;;;3.07;;
50012;SDS011;35901;48.694;9.476;2022-07-29T14:05:55;3.20;;;3.00;;
50012;SDS011;35901;48.694;9.476;2022-07-29T14:08:21;3.60;;;3.30;;
50012;SDS011;35901;48.694;9.476;2022-07-29T14:10:47;3.47;;;3.27;;
50012;SDS011;35901;48.694;9.476;2022-07-29T14:13:12;3.27;;;3.03;;
50012;SDS011;35901;48.694;9.476;2022-07-29T14:15:38;3.20;;;3.00;;
50012;SDS011;35901;48.694;9.476;2022-07-29T14:18:04;3.67;;;3.37;;
50012;SDS011;35901;48.694;9.476;2022-07-29T14:20:30;3.37;;;2.87;;
50012;SDS011;35901;48.694;9.476;2022-07-29T14:22:56;3.53;;;3.23;;
50012;SDS011;35901;48.694;9.476;2022-07-29T14:25:23;4.63;;;3.60;;
50012;SDS011;35901;48.694;9.476;2022-07-29T14:27:49;4.10;;;3.50;;
50012;SDS011;35901;48.694;9.476;2022-07-29T14:30:14;3.80;;;3.50;;
50012;SDS011;35901;48.694;9.476;2022-07-29T14:32:40;3.67;;;3.37;;
50012;SDS011;35901;48.694;9.476;2022-07-29T14:35:06;3.33;;;3.03;;
50012;SDS011;35901;48.694;9.476;2022-07-29T14:37:32;3.70;;;3.23;;
50012;SDS011;35901;48.694;9.476;2022-07-29T14:40:00;3.80;;;3.20;;
50012;SDS011;35901;48.694;9.476;2022-07-29T14:42:28;3.83;;;3.50;;
50012;SDS011;35901;48.694;9.476;2022-07-29T14:44:56;3.70;;;3.40;;
50012;SDS011;35901;48.694;9.476;2022-07-29T14:47:22;5.73;;;4.10;;
50012;SDS011;35901;48.694;9.476;2022-07-29T14:49:48;4.27;;;3.87;;
50012;SDS011;35901;48.694;9.476;2022-07-29T14:52:14;4.97;;;4.47;;
50012;SDS011;35901;48.694;9.476;2022-07-29T14:54:40;5.37;;;4.80;;
50012;SDS011;35901;48.694;9.476;2022-07-29T14:57:06;5.87;;;4.63;;
50012;SDS011;35901;48.694;9.476;2022-07-29T14:59:31;4.40;;;4.00;;
50012;SDS011;35901;48.694;9.476;2022-07-29T15:01:57;4.43;;;3.93;;
50012;SDS011;35901;48.694;9.476;2022-07-29T15:04:23;6.00;;;4.70;;
50012;SDS011;35901;48.694;9.476;2022-07-29T15:06:48;4.40;;;4.00;;
50012;SDS011;35901;48.694;9.476;2022-07-29T15:09:15;4.30;;;3.90;;
50012;SDS011;35901;48.694;9.476;2022-07-29T15:11:41;4.30;;;3.90;;
50012;SDS011;35901;48.694;9.476;2022-07-29T15:14:08;4.33;;;4.00;;
50012;SDS011;35901;48.694;9.476;2022-07-29T15:16:38;3.90;;;3.50;;
50012;SDS011;35901;48.694;9.476;2022-07-29T15:19:05;3.93;;;3.63;;
50012;SDS011;35901;48.694;9.476;2022-07-29T15:21:31;3.97;;;3.67;;
50012;SDS011;35901;48.694;9.476;2022-07-29T15:23:57;3.80;;;3.50;;
50012;SDS011;35901;48.694;9.476;2022-07-29T15:26:23;3.43;;;3.17;;
50012;SDS011;35901;48.694;9.476;2022-07-29T15:28:48;4.33;;;3.87;;
50012;SDS011;35901;48.694;9.476;2022-07-29T15:31:14;4.00;;;3.60;;
50012;SDS011;35901;48.694;9.476;2022-07-29T15:33:40;3.90;;;3.60;;
50012;SDS011;35901;48.694;9.476;2022-07-29T15:36:05;4.10;;;3.80;;
50012;SDS011;35901;48.694;9.476;2022-07-29T15:38:31;3.83;;;3.47;;
50012;SDS011;35901;48.694;9.476;2022-07-29T15:40:57;3.80;;;3.50;;